createdAt,value
2018-07-06T00:02:25.521Z,97365.77
2018-07-06T00:05:04.803Z,97371.00
2018-07-06T00:07:44.031Z,97367.23
2018-07-06T00:10:23.151Z,97370.08
2018-07-06T00:13:02.400Z,97364.63
2018-07-06T00:15:41.652Z,97362.47
2018-07-06T00:18:20.708Z,97365.13
2018-07-06T00:20:59.795Z,97366.38
2018-07-06T00:23:38.962Z,97365.05
2018-07-06T00:26:18.199Z,97363.52
2018-07-06T00:28:57.392Z,97351.65
2018-07-06T00:31:36.566Z,97355.81
2018-07-06T00:34:15.814Z,97360.98
2018-07-06T00:36:55.022Z,97360.92
2018-07-06T00:39:34.290Z,97359.25
2018-07-06T00:42:13.570Z,97359.05
2018-07-06T00:44:52.685Z,97365.59
2018-07-06T00:47:31.907Z,97364.42
2018-07-06T00:50:11.051Z,97365.05
2018-07-06T00:52:50.187Z,97363.11
2018-07-06T00:55:29.204Z,97361.63
2018-07-06T00:58:08.498Z,97357.02
2018-07-06T01:00:47.587Z,97361.38
2018-07-06T01:03:26.785Z,97368.94
2018-07-06T01:06:05.900Z,97367.55
2018-07-06T01:08:45.198Z,97364.62
2018-07-06T01:11:24.458Z,97362.41
2018-07-06T01:14:03.670Z,97365.27
2018-07-06T01:16:42.757Z,97367.09
2018-07-06T01:19:21.902Z,97367.12
2018-07-06T01:22:01.100Z,97358.41
2018-07-06T01:24:40.430Z,97360.22
2018-07-06T01:27:19.628Z,97364.11
2018-07-06T01:29:58.840Z,97365.78
2018-07-06T01:32:38.156Z,97360.55
2018-07-06T01:35:17.425Z,97360.80
2018-07-06T01:37:56.783Z,97363.44
2018-07-06T01:40:36.062Z,97357.31
2018-07-06T01:43:15.223Z,97354.94
2018-07-06T01:45:54.459Z,97361.30
2018-07-06T01:48:33.646Z,97356.55
2018-07-06T01:51:12.935Z,97361.66
2018-07-06T01:53:51.974Z,97364.20
2018-07-06T01:56:31.153Z,97363.63
2018-07-06T01:59:10.408Z,97360.00
2018-07-06T02:01:49.640Z,97362.94
2018-07-06T02:04:29.787Z,97361.39
2018-07-06T02:07:08.817Z,97363.11
2018-07-06T02:09:47.934Z,97358.47
2018-07-06T02:12:27.216Z,97371.08
2018-07-06T02:15:06.550Z,97369.05
2018-07-06T02:17:46.063Z,97374.36
2018-07-06T02:20:25.365Z,97369.75
2018-07-06T02:23:04.387Z,97372.33
2018-07-06T02:25:43.628Z,97371.61
2018-07-06T02:28:22.824Z,97375.04
2018-07-06T02:31:01.956Z,97378.41
2018-07-06T02:33:41.184Z,97378.41
2018-07-06T02:36:20.364Z,97374.48
2018-07-06T02:38:59.784Z,97373.77
2018-07-06T02:41:38.953Z,97370.36
2018-07-06T02:44:18.050Z,97369.25
2018-07-06T02:46:57.290Z,97364.29
2018-07-06T02:49:36.428Z,97368.89
2018-07-06T02:52:15.579Z,97368.84
2018-07-06T02:54:54.776Z,97372.41
2018-07-06T02:57:34.064Z,97367.50
2018-07-06T03:00:13.237Z,97365.80
2018-07-06T03:02:52.368Z,97367.22
2018-07-06T03:05:31.534Z,97362.61
2018-07-06T03:08:10.727Z,97364.07
2018-07-06T03:10:49.938Z,97359.80
2018-07-06T03:13:29.171Z,97370.59
2018-07-06T03:16:08.344Z,97377.56
2018-07-06T03:18:47.771Z,97377.34
2018-07-06T03:21:27.322Z,97369.94
2018-07-06T03:24:06.786Z,97375.59
2018-07-06T03:26:46.027Z,97379.98
2018-07-06T03:29:25.110Z,97383.12
2018-07-06T03:32:04.287Z,97383.13
2018-07-06T03:34:43.597Z,97390.20
2018-07-06T03:37:22.964Z,97383.44
2018-07-06T03:40:02.144Z,97381.61
2018-07-06T03:42:41.357Z,97377.84
2018-07-06T03:45:20.453Z,97375.95
2018-07-06T03:47:59.625Z,97376.43
2018-07-06T03:50:38.724Z,97375.18
2018-07-06T03:53:17.955Z,97376.58
2018-07-06T03:55:57.158Z,97374.63
2018-07-06T03:58:36.255Z,97377.00
2018-07-06T04:01:15.452Z,97385.45
2018-07-06T04:03:54.592Z,97386.10
2018-07-06T04:06:33.712Z,97388.39
2018-07-06T04:09:13.101Z,97397.06
2018-07-06T04:11:52.328Z,97387.98
2018-07-06T04:14:31.446Z,97391.84
2018-07-06T04:17:10.573Z,97388.80
2018-07-06T04:19:49.799Z,97387.42
2018-07-06T04:22:29.177Z,97395.88
2018-07-06T04:25:08.486Z,97397.62
2018-07-06T04:27:47.665Z,97396.72
2018-07-06T04:30:26.835Z,97396.02
2018-07-06T04:33:06.186Z,97400.75
2018-07-06T04:35:45.419Z,97393.89
2018-07-06T04:38:24.690Z,97401.09
2018-07-06T04:41:03.958Z,97398.38
2018-07-06T04:43:43.038Z,97405.14
2018-07-06T04:46:22.302Z,97403.81
2018-07-06T04:49:01.610Z,97405.63
2018-07-06T04:51:40.963Z,97408.63
2018-07-06T04:54:20.160Z,97405.62
2018-07-06T04:56:59.358Z,97410.80
2018-07-06T04:59:38.527Z,97414.72
2018-07-06T05:02:17.666Z,97414.30
2018-07-06T05:04:56.826Z,97420.80
2018-07-06T05:07:36.150Z,97408.58
2018-07-06T05:10:15.297Z,97421.23
2018-07-06T05:12:54.564Z,97417.83
2018-07-06T05:15:33.788Z,97421.85
2018-07-06T05:18:13.158Z,97429.45
2018-07-06T05:20:52.357Z,97428.15
2018-07-06T05:23:31.551Z,97430.52
2018-07-06T05:26:10.875Z,97432.45
2018-07-06T05:28:50.249Z,97434.19
2018-07-06T05:31:29.424Z,97431.39
2018-07-06T05:34:08.554Z,97432.92
2018-07-06T05:36:47.638Z,97437.33
2018-07-06T05:39:26.811Z,97437.82
2018-07-06T05:42:05.893Z,97442.45
2018-07-06T05:44:45.041Z,97444.92
2018-07-06T05:47:24.029Z,97446.47
2018-07-06T05:50:03.227Z,97447.72
2018-07-06T05:52:42.415Z,97446.95
2018-07-06T05:55:21.772Z,97446.48
2018-07-06T05:58:01.079Z,97451.80
2018-07-06T06:00:40.279Z,97448.14
2018-07-06T06:03:19.553Z,97454.78
2018-07-06T06:05:58.719Z,97455.41
2018-07-06T06:08:25.574Z,97455.98
2018-07-06T06:10:53.008Z,97459.60
2018-07-06T06:13:20.515Z,97456.60
2018-07-06T06:15:47.910Z,97460.28
2018-07-06T06:18:15.403Z,97464.22
2018-07-06T06:20:42.827Z,97465.98
2018-07-06T06:23:10.803Z,97461.94
2018-07-06T06:25:38.210Z,97471.20
2018-07-06T06:28:05.675Z,97471.06
2018-07-06T06:30:33.111Z,97470.13
2018-07-06T06:33:00.566Z,97471.02
2018-07-06T06:35:28.010Z,97470.74
2018-07-06T06:37:55.474Z,97470.33
2018-07-06T06:40:22.918Z,97471.78
2018-07-06T06:42:50.438Z,97480.12
2018-07-06T06:45:17.929Z,97479.73
2018-07-06T06:47:45.382Z,97473.98
2018-07-06T06:50:12.941Z,97480.83
2018-07-06T06:55:14.225Z,97476.74
2018-07-06T06:57:41.732Z,97483.44
2018-07-06T07:00:09.165Z,97480.89
2018-07-06T07:02:36.622Z,97472.84
2018-07-06T07:05:04.084Z,97468.39
2018-07-06T07:07:31.660Z,97470.97
2018-07-06T07:09:59.100Z,97468.44
2018-07-06T07:12:26.557Z,97473.47
2018-07-06T07:14:54.016Z,97474.73
2018-07-06T07:17:21.426Z,97477.59
2018-07-06T07:19:48.861Z,97476.86
2018-07-06T07:22:16.331Z,97478.11
2018-07-06T07:24:43.771Z,97477.50
2018-07-06T07:27:11.296Z,97476.68
2018-07-06T07:29:38.867Z,97478.88
2018-07-06T07:32:06.539Z,97483.98
2018-07-06T07:34:34.031Z,97489.77
2018-07-06T07:37:01.456Z,97488.84
2018-07-06T07:39:28.847Z,97483.59
2018-07-06T07:41:56.468Z,97482.30
2018-07-06T07:44:24.042Z,97481.03
2018-07-06T07:46:51.516Z,97489.95
2018-07-06T07:49:19.079Z,97498.64
2018-07-06T07:51:58.263Z,97500.44
2018-07-06T07:54:25.897Z,97495.33
2018-07-06T07:56:53.369Z,97489.48
2018-07-06T07:59:21.300Z,97492.41
2018-07-06T08:01:48.723Z,97497.20
2018-07-06T08:04:16.163Z,97508.19
2018-07-06T08:06:43.653Z,97505.58
2018-07-06T08:09:11.102Z,97515.86
2018-07-06T08:11:38.519Z,97521.38
2018-07-06T08:14:05.951Z,97529.73
2018-07-06T08:16:33.365Z,97524.03
2018-07-06T08:19:00.810Z,97530.11
2018-07-06T08:21:28.312Z,97522.95
2018-07-06T08:23:55.729Z,97528.94
2018-07-06T08:26:24.511Z,97528.19
2018-07-06T08:28:51.982Z,97529.77
2018-07-06T08:31:19.420Z,97528.06
2018-07-06T08:33:46.877Z,97528.89
2018-07-06T08:36:14.439Z,97531.02
2018-07-06T08:38:42.012Z,97524.98
2018-07-06T08:41:09.460Z,97525.16
2018-07-06T08:43:37.039Z,97533.63
2018-07-06T08:46:04.518Z,97526.69
2018-07-06T08:48:32.452Z,97527.59
2018-07-06T08:50:59.921Z,97529.55
2018-07-06T08:53:27.446Z,97537.16
2018-07-06T08:55:54.971Z,97531.87
2018-07-06T08:58:22.532Z,97538.61
2018-07-06T09:00:49.945Z,97539.42
2018-07-06T09:03:17.377Z,97534.55
2018-07-06T09:05:44.811Z,97536.41
2018-07-06T09:08:12.214Z,97538.22
2018-07-06T09:10:39.679Z,97542.72
2018-07-06T09:13:07.182Z,97544.53
2018-07-06T09:15:34.575Z,97551.97
2018-07-06T09:18:02.047Z,97548.96
2018-07-06T09:20:29.470Z,97546.31
2018-07-06T09:22:57.444Z,97546.05
2018-07-06T09:25:25.109Z,97543.95
2018-07-06T09:27:52.530Z,97548.44
2018-07-06T09:30:20.032Z,97550.80
2018-07-06T09:32:47.460Z,97548.57
2018-07-06T09:35:16.089Z,97550.08
2018-07-06T09:37:43.595Z,97554.99
2018-07-06T09:40:11.088Z,97546.46
2018-07-06T09:42:38.556Z,97549.55
2018-07-06T09:45:06.019Z,97546.47
2018-07-06T09:47:33.524Z,97546.89
2018-07-06T09:50:01.019Z,97555.81
2018-07-06T09:52:28.463Z,97554.41
2018-07-06T09:54:56.220Z,97555.66
2018-07-06T09:57:23.715Z,97555.63
2018-07-06T09:59:51.174Z,97556.10
2018-07-06T10:02:19.269Z,97553.16
2018-07-06T10:04:46.790Z,97558.14
2018-07-06T10:07:14.261Z,97554.59
2018-07-06T10:09:41.808Z,97568.03
2018-07-06T10:12:10.305Z,97560.86
2018-07-06T10:14:37.838Z,97565.14
2018-07-06T10:17:05.315Z,97561.02
2018-07-06T10:19:32.862Z,97547.45
2018-07-06T10:22:00.357Z,97552.24
2018-07-06T10:24:27.789Z,97554.40
2018-07-06T10:26:55.284Z,97555.06
2018-07-06T10:29:22.678Z,97551.92
2018-07-06T10:31:51.054Z,97551.69
2018-07-06T10:34:18.652Z,97545.13
2018-07-06T10:36:46.096Z,97546.13
2018-07-06T10:39:13.562Z,97549.58
2018-07-06T10:41:41.049Z,97548.80
2018-07-06T10:44:08.565Z,97545.09
2018-07-06T10:46:35.618Z,97549.83
2018-07-06T10:49:02.615Z,97553.20
2018-07-06T10:51:29.639Z,97549.16
2018-07-06T10:53:56.684Z,97541.31
2018-07-06T10:56:23.743Z,97547.31
2018-07-06T10:58:50.818Z,97551.41
2018-07-06T11:01:17.817Z,97548.94
2018-07-06T11:03:45.257Z,97547.67
2018-07-06T11:06:12.790Z,97549.91
2018-07-06T11:08:40.368Z,97548.74
2018-07-06T11:11:07.962Z,97545.23
2018-07-06T11:13:34.958Z,97541.54
2018-07-06T11:16:01.958Z,97547.64
2018-07-06T11:18:28.972Z,97541.84
2018-07-06T11:20:56.368Z,97547.90
2018-07-06T11:23:23.796Z,97540.95
2018-07-06T11:25:51.236Z,97537.25
2018-07-06T11:28:18.679Z,97529.67
2018-07-06T11:30:46.341Z,97529.56
2018-07-06T11:33:17.703Z,97534.54
2018-07-06T11:35:44.768Z,97532.92
2018-07-06T11:38:11.950Z,97536.80
2018-07-06T11:40:38.772Z,97538.52
2018-07-06T11:43:05.755Z,97535.36
2018-07-06T11:45:32.717Z,97531.19
2018-07-06T11:47:59.766Z,97530.36
2018-07-06T11:50:26.801Z,97526.33
2018-07-06T11:52:53.745Z,97524.39
2018-07-06T11:55:21.215Z,97532.19
2018-07-06T11:57:48.670Z,97522.53
2018-07-06T12:00:16.254Z,97520.81
2018-07-06T12:02:43.240Z,97514.25
2018-07-06T12:05:10.206Z,97520.45
2018-07-06T12:07:37.206Z,97510.05
2018-07-06T12:10:04.190Z,97517.95
2018-07-06T12:12:31.319Z,97513.47
2018-07-06T12:14:58.452Z,97518.98
2018-07-06T12:17:25.618Z,97524.02
2018-07-06T12:19:52.777Z,97507.23
2018-07-06T12:22:19.868Z,97506.76
2018-07-06T12:24:46.892Z,97504.77
2018-07-06T12:27:13.889Z,97505.92
2018-07-06T12:29:41.065Z,97495.61
2018-07-06T12:32:08.043Z,97502.13
2018-07-06T12:34:35.131Z,97489.55
2018-07-06T12:37:02.153Z,97496.59
2018-07-06T12:39:29.839Z,97495.31
2018-07-06T12:41:57.012Z,97499.36
2018-07-06T12:44:24.240Z,97502.19
2018-07-06T12:46:51.250Z,97498.36
2018-07-06T12:49:18.405Z,97503.41
2018-07-06T12:51:45.419Z,97495.36
2018-07-06T12:54:12.503Z,97492.08
2018-07-06T12:56:40.204Z,97492.83
2018-07-06T12:59:07.161Z,97498.67
2018-07-06T13:01:34.710Z,97491.34
2018-07-06T13:04:02.172Z,97499.38
2018-07-06T13:06:29.687Z,97500.06
2018-07-06T13:08:57.142Z,97506.75
2018-07-06T13:11:24.573Z,97512.47
2018-07-06T13:13:52.072Z,97513.67
2018-07-06T13:16:19.501Z,97511.96
2018-07-06T13:18:46.937Z,97511.48
2018-07-06T13:21:14.502Z,97510.41
2018-07-06T13:23:42.088Z,97509.86
2018-07-06T13:26:09.591Z,97516.22
2018-07-06T13:28:37.085Z,97514.58
2018-07-06T13:31:04.543Z,97507.98
2018-07-06T13:33:31.991Z,97512.98
2018-07-06T13:35:59.435Z,97506.08
2018-07-06T13:38:26.870Z,97511.53
2018-07-06T13:40:54.387Z,97510.83
2018-07-06T13:43:21.868Z,97519.55
2018-07-06T13:45:48.909Z,97517.69
2018-07-06T13:48:16.054Z,97515.73
2018-07-06T13:50:43.092Z,97511.50
2018-07-06T13:53:10.091Z,97512.28
2018-07-06T13:55:37.293Z,97508.14
2018-07-06T13:58:04.957Z,97514.41
2018-07-06T14:00:32.564Z,97509.25
2018-07-06T14:03:00.031Z,97513.38
2018-07-06T14:05:27.528Z,97514.37
2018-07-06T14:07:55.013Z,97515.89
2018-07-06T14:10:22.506Z,97520.45
2018-07-06T14:12:49.956Z,97514.91
2018-07-06T14:15:17.642Z,97524.45
2018-07-06T14:17:45.099Z,97522.50
2018-07-06T14:20:12.716Z,97518.78
2018-07-06T14:22:40.167Z,97514.33
2018-07-06T14:25:07.920Z,97509.23
2018-07-06T14:27:36.190Z,97505.45
2018-07-06T14:30:04.806Z,97509.05
2018-07-06T14:32:32.731Z,97497.77
2018-07-06T14:35:00.278Z,97502.30
2018-07-06T14:37:27.651Z,97489.82
2018-07-06T14:39:55.077Z,97490.16
2018-07-06T14:42:22.699Z,97483.88
2018-07-06T14:44:50.172Z,97481.16
2018-07-06T14:47:17.717Z,97482.50
2018-07-06T14:49:45.256Z,97484.59
2018-07-06T14:52:12.718Z,97489.77
2018-07-06T14:54:40.134Z,97488.49
2018-07-06T14:57:07.601Z,97485.28
2018-07-06T14:59:35.374Z,97492.63
2018-07-06T15:02:02.948Z,97492.74
2018-07-06T15:04:30.420Z,97487.57
2018-07-06T15:06:57.921Z,97488.65
2018-07-06T15:09:25.423Z,97489.94
2018-07-06T15:11:52.890Z,97490.47
2018-07-06T15:14:20.444Z,97488.59
2018-07-06T15:16:47.923Z,97491.74
2018-07-06T15:19:16.248Z,97487.58
2018-07-06T15:21:43.710Z,97493.20
2018-07-06T15:24:11.368Z,97488.41
2018-07-06T15:26:38.804Z,97496.80
2018-07-06T15:29:06.363Z,97487.45
2018-07-06T15:31:33.847Z,97488.97
2018-07-06T15:34:01.319Z,97493.34
2018-07-06T15:36:28.785Z,97497.36
2018-07-06T15:38:56.235Z,97493.77
2018-07-06T15:41:23.702Z,97493.66
2018-07-06T15:43:51.268Z,97495.09
2018-07-06T15:46:18.718Z,97492.22
2018-07-06T15:48:46.165Z,97490.95
2018-07-06T15:51:13.683Z,97501.47
2018-07-06T15:53:41.183Z,97496.65
2018-07-06T15:56:08.662Z,97483.45
2018-07-06T15:58:36.238Z,97485.37
2018-07-06T16:01:03.736Z,97481.40
2018-07-06T16:03:31.268Z,97480.32
2018-07-06T16:05:58.745Z,97491.13
2018-07-06T16:08:26.382Z,97488.42
2018-07-06T16:10:53.849Z,97488.78
2018-07-06T16:13:21.376Z,97486.90
2018-07-06T16:15:48.869Z,97491.66
2018-07-06T16:18:16.306Z,97497.27
2018-07-06T16:20:43.790Z,97498.51
2018-07-06T16:23:11.283Z,97495.15
2018-07-06T16:25:38.784Z,97498.54
2018-07-06T16:28:06.263Z,97498.01
2018-07-06T16:30:34.265Z,97497.30
2018-07-06T16:33:01.813Z,97501.80
2018-07-06T16:35:29.313Z,97499.64
2018-07-06T16:37:56.882Z,97502.27
2018-07-06T16:40:25.538Z,97504.12
2018-07-06T16:42:53.105Z,97511.89
2018-07-06T16:45:20.654Z,97509.17
2018-07-06T16:47:48.473Z,97516.95
2018-07-06T16:50:15.978Z,97517.98
2018-07-06T16:52:43.569Z,97517.09
2018-07-06T16:55:11.153Z,97521.38
2018-07-06T16:57:38.636Z,97511.77
2018-07-06T17:00:06.404Z,97515.03
2018-07-06T17:02:34.756Z,97528.16
2018-07-06T17:05:02.334Z,97520.54
2018-07-06T17:07:30.409Z,97517.03
2018-07-06T17:09:57.997Z,97520.56
2018-07-06T17:12:25.695Z,97519.21
2018-07-06T17:14:53.161Z,97517.55
2018-07-06T17:17:20.672Z,97516.05
2018-07-06T17:19:48.878Z,97514.69
2018-07-06T17:22:16.477Z,97513.87
2018-07-06T17:24:45.542Z,97523.08
2018-07-06T17:27:13.033Z,97512.62
2018-07-06T17:29:40.503Z,97500.48
2018-07-06T17:32:08.677Z,97512.52
2018-07-06T17:34:36.274Z,97519.88
2018-07-06T17:37:03.804Z,97512.17
2018-07-06T17:39:31.344Z,97515.18
2018-07-06T17:41:59.017Z,97514.06
2018-07-06T17:44:26.629Z,97520.44
2018-07-06T17:46:54.063Z,97515.03
2018-07-06T17:49:21.571Z,97512.77
2018-07-06T17:51:49.068Z,97515.30
2018-07-06T17:54:16.501Z,97522.70
2018-07-06T17:56:44.005Z,97538.11
2018-07-06T17:59:11.472Z,97533.52
2018-07-06T18:01:39.064Z,97535.34
2018-07-06T18:04:06.568Z,97537.27
2018-07-06T18:06:34.006Z,97534.25
2018-07-06T18:09:01.606Z,97538.28
2018-07-06T18:11:29.621Z,97545.11
2018-07-06T18:13:57.313Z,97541.53
2018-07-06T18:16:24.876Z,97543.87
2018-07-06T18:18:52.689Z,97541.94
2018-07-06T18:21:20.203Z,97543.22
2018-07-06T18:23:47.654Z,97537.11
2018-07-06T18:26:15.131Z,97534.50
2018-07-06T18:28:42.667Z,97533.72
2018-07-06T18:31:10.111Z,97532.03
2018-07-06T18:33:37.639Z,97534.36
2018-07-06T18:36:05.172Z,97532.92
2018-07-06T18:38:32.659Z,97531.09
2018-07-06T18:41:00.063Z,97532.81
2018-07-06T18:43:28.276Z,97534.11
2018-07-06T18:45:55.776Z,97538.86
2018-07-06T18:48:23.195Z,97538.52
2018-07-06T18:50:50.671Z,97541.44
2018-07-06T18:53:18.131Z,97535.83
2018-07-06T18:55:45.674Z,97539.19
2018-07-06T18:58:13.146Z,97542.77
2018-07-06T19:00:40.590Z,97543.30
2018-07-06T19:03:08.102Z,97538.75
2018-07-06T19:05:35.552Z,97542.52
2018-07-06T19:08:03.639Z,97549.69
2018-07-06T19:10:31.267Z,97546.61
2018-07-06T19:12:58.792Z,97553.05
2018-07-06T19:15:26.404Z,97556.36
2018-07-06T19:17:53.830Z,97563.16
2018-07-06T19:20:21.337Z,97567.53
2018-07-06T19:22:48.918Z,97568.36
2018-07-06T19:25:16.311Z,97566.73
2018-07-06T19:27:43.796Z,97575.66
2018-07-06T19:30:11.295Z,97570.23
2018-07-06T19:32:38.696Z,97575.37
2018-07-06T19:35:06.208Z,97568.95
2018-07-06T19:37:33.634Z,97579.14
2018-07-06T19:40:01.130Z,97586.50
2018-07-06T19:42:28.619Z,97593.20
2018-07-06T19:44:56.225Z,97591.31
2018-07-06T19:47:23.693Z,97592.88
2018-07-06T19:49:51.142Z,97594.45
2018-07-06T19:52:18.647Z,97596.71
2018-07-06T19:54:46.140Z,97601.97
2018-07-06T19:57:13.586Z,97604.72
2018-07-06T19:59:41.103Z,97605.25
2018-07-06T20:02:08.601Z,97617.36
2018-07-06T20:04:36.406Z,97617.15
2018-07-06T20:07:03.888Z,97622.63
2018-07-06T20:09:31.330Z,97627.79
2018-07-06T20:11:58.800Z,97633.08
2018-07-06T20:14:26.378Z,97636.34
2018-07-06T20:16:53.835Z,97636.25
2018-07-06T20:19:21.563Z,97647.89
2018-07-06T20:21:54.200Z,97647.93
2018-07-06T20:24:21.758Z,97653.22
2018-07-06T20:26:51.291Z,97660.23
2018-07-06T20:29:18.962Z,97665.67
2018-07-06T20:31:46.448Z,97671.11
2018-07-06T20:34:13.913Z,97667.23
2018-07-06T20:36:41.438Z,97671.78
2018-07-06T20:39:08.928Z,97670.69
2018-07-06T20:41:37.354Z,97673.34
2018-07-06T20:44:04.841Z,97677.47
2018-07-06T20:46:32.291Z,97672.58
2018-07-06T20:48:59.752Z,97677.56
2018-07-06T20:51:27.215Z,97678.70
2018-07-06T20:53:54.692Z,97674.30
2018-07-06T20:56:22.085Z,97678.47
2018-07-06T20:58:49.511Z,97677.36
2018-07-06T21:01:16.906Z,97670.14
2018-07-06T21:03:44.412Z,97670.02
2018-07-06T21:06:12.188Z,97670.38
2018-07-06T21:08:39.589Z,97665.69
2018-07-06T21:11:07.007Z,97657.99
2018-07-06T21:13:34.447Z,97664.44
2018-07-06T21:16:02.039Z,97657.85
2018-07-06T21:18:29.437Z,97664.48
2018-07-06T21:20:56.862Z,97653.66
2018-07-06T21:23:24.320Z,97654.55
2018-07-06T21:25:51.849Z,97652.70
2018-07-06T21:28:19.298Z,97644.14
2018-07-06T21:30:46.853Z,97647.48
2018-07-06T21:33:14.305Z,97643.04
2018-07-06T21:35:41.755Z,97651.26
2018-07-06T21:38:09.204Z,97647.04
2018-07-06T21:40:36.639Z,97654.02
2018-07-06T21:43:04.225Z,97651.80
2018-07-06T21:45:31.651Z,97646.14
2018-07-06T21:47:59.147Z,97650.61
2018-07-06T21:50:26.640Z,97648.59
2018-07-06T21:52:54.136Z,97651.31
2018-07-06T21:55:21.555Z,97653.23
2018-07-06T21:57:49.004Z,97655.16
2018-07-06T22:00:16.590Z,97653.69
2018-07-06T22:02:44.052Z,97660.09
2018-07-06T22:05:11.539Z,97659.87
2018-07-06T22:07:38.972Z,97656.92
2018-07-06T22:10:06.488Z,97654.95
2018-07-06T22:12:33.889Z,97650.95
2018-07-06T22:15:01.298Z,97645.98
2018-07-06T22:17:28.721Z,97647.44
2018-07-06T22:19:56.217Z,97647.42
2018-07-06T22:22:23.677Z,97649.33
2018-07-06T22:24:51.204Z,97649.19
2018-07-06T22:27:18.643Z,97652.83
2018-07-06T22:29:46.242Z,97649.44
2018-07-06T22:32:14.364Z,97642.19
2018-07-06T22:34:42.027Z,97638.92
2018-07-06T22:37:09.504Z,97642.14
2018-07-06T22:39:37.109Z,97642.52
2018-07-06T22:42:04.600Z,97642.22
2018-07-06T22:44:32.153Z,97639.28
2018-07-06T22:46:59.596Z,97636.53
2018-07-06T22:49:27.283Z,97630.97
2018-07-06T22:51:54.765Z,97637.51
2018-07-06T22:54:22.212Z,97639.34
2018-07-06T22:56:49.655Z,97637.92
2018-07-06T22:59:17.164Z,97638.50
2018-07-06T23:01:44.656Z,97637.89
2018-07-06T23:04:12.228Z,97633.06
2018-07-06T23:06:39.681Z,97639.73
2018-07-06T23:09:07.104Z,97635.64
2018-07-06T23:11:34.590Z,97636.64
2018-07-06T23:14:02.326Z,97637.00
2018-07-06T23:16:29.780Z,97635.41
2018-07-06T23:18:57.312Z,97626.19
2018-07-06T23:21:24.737Z,97627.70
2018-07-06T23:23:52.223Z,97632.58
2018-07-06T23:26:19.612Z,97626.35
2018-07-06T23:28:47.051Z,97628.80
2018-07-06T23:31:14.485Z,97622.19
2018-07-06T23:33:41.934Z,97629.02
2018-07-06T23:36:09.504Z,97631.33
2018-07-06T23:38:37.024Z,97628.75
2018-07-06T23:41:04.514Z,97633.16
2018-07-06T23:43:31.926Z,97633.46
2018-07-06T23:45:59.468Z,97632.88
2018-07-06T23:48:26.914Z,97635.69
2018-07-06T23:50:54.393Z,97633.77
2018-07-06T23:53:21.875Z,97638.05
2018-07-06T23:55:49.421Z,97640.23
2018-07-06T23:58:16.885Z,97635.02
